Time;durP1;ratioP1;P1;durP2;ratioP2;P2;SDS_P1;SDS_P2;PMS_P1;PMS_P2;Temp;Humidity;BMP_temperature;BMP_pressure;BME280_temperature;BME280_humidity;BME280_pressure;Samples;Min_cycle;Max_cycle;Signal;HPM_P1;HPM_P2
2022/05/15 00:00:37;;;;;;;;;6.00;6.00;;;;;20.94;65.25;101446.66;4922401;28;45482;-69
2022/05/15 00:00:38;;;;;;;;;5.33;5.00;;;;;20.88;64.87;101439.63;4923146;28;45687;-70
2022/05/15 00:03:05;;;;;;;;;11.67;5.00;;;;;20.89;65.45;101437.84;4934465;28;45513;-69
2022/05/15 00:05:31;;;;;;;;;8.00;5.33;;;;;20.85;65.88;101428.06;4935224;28;45353;-69
2022/05/15 00:07:56;;;;;;;;;7.00;6.00;;;;;20.80;66.23;101428.16;4937391;28;45394;-72
2022/05/15 00:10:22;;;;;;;;;6.67;5.67;;;;;20.77;66.55;101430.91;4928995;28;45635;-69
2022/05/15 00:12:47;;;;;;;;;5.67;4.00;;;;;20.72;66.03;101424.78;4930034;28;45753;-68
2022/05/15 00:15:13;;;;;;;;;7.00;5.00;;;;;20.66;66.56;101414.16;4924690;28;45268;-69
2022/05/15 00:17:38;;;;;;;;;6.33;6.00;;;;;20.61;67.16;101402.63;4934129;28;45842;-69
2022/05/15 00:20:04;;;;;;;;;7.67;5.00;;;;;20.57;66.53;101400.97;4925076;28;45527;-69
2022/05/15 00:22:34;;;;;;;;;7.00;5.00;;;;;20.56;68.34;101405.44;4936637;28;45808;-70
2022/05/15 00:25:04;;;;;;;;;10.00;7.00;;;;;20.52;67.44;101398.38;4937079;28;45596;-69
2022/05/15 00:27:29;;;;;;;;;6.33;5.67;;;;;20.48;68.02;101395.78;4937281;28;45362;-69
2022/05/15 00:29:55;;;;;;;;;5.33;5.33;;;;;20.46;67.69;101393.13;4936720;28;54662;-71
2022/05/15 00:32:20;;;;;;;;;7.00;7.00;;;;;20.42;68.24;101391.38;4921324;28;61593;-71
2022/05/15 00:34:45;;;;;;;;;7.33;5.67;;;;;20.36;69.22;101380.78;4931943;28;56464;-69
2022/05/15 00:37:11;;;;;;;;;7.67;5.00;;;;;20.35;68.75;101387.97;4936291;28;57020;-69
2022/05/15 00:39:36;;;;;;;;;7.67;5.33;;;;;20.31;69.83;101386.25;4930672;28;48328;-70
2022/05/15 00:42:08;;;;;;;;;6.67;5.67;;;;;20.29;70.00;101385.38;4928153;28;46527;-69
2022/05/15 00:44:33;;;;;;;;;5.00;4.67;;;;;20.27;70.52;101387.22;4936645;28;46244;-71
2022/05/15 00:46:59;;;;;;;;;5.33;3.67;;;;;20.25;70.17;101385.50;4925650;28;57458;-69
2022/05/15 00:49:24;;;;;;;;;5.00;5.00;;;;;20.23;70.98;101381.94;4931518;28;53786;-69
2022/05/15 00:51:53;;;;;;;;;7.00;6.67;;;;;20.25;70.44;101386.38;4933448;28;63870;-69
2022/05/15 00:54:32;;;;;;;;;6.67;6.67;;;;;20.23;71.27;101385.50;4932772;28;45455;-70
2022/05/15 00:57:12;;;;;;;;;8.00;5.00;;;;;20.22;70.69;101381.06;4938270;28;45416;-69
2022/05/15 00:59:42;;;;;;;;;7.00;5.67;;;;;20.21;72.31;101381.97;4915833;28;45423;-69
2022/05/15 01:02:12;;;;;;;;;6.33;6.33;;;;;20.18;71.78;101371.31;4921558;28;47362;-70
2022/05/15 01:04:37;;;;;;;;;6.00;5.00;;;;;20.11;72.13;101359.81;4917924;28;56660;-69
2022/05/15 01:07:03;;;;;;;;;7.00;7.00;;;;;20.14;73.05;101366.94;4907934;28;49971;-69
2022/05/15 01:09:29;;;;;;;;;6.00;5.67;;;;;20.10;72.72;101368.78;4939801;28;45180;-70
2022/05/15 01:11:55;;;;;;;;;7.00;5.67;;;;;20.08;73.40;101359.91;4939933;28;45524;-69
2022/05/15 01:14:20;;;;;;;;;7.67;7.67;;;;;20.11;72.84;101369.66;4929632;28;45388;-69
2022/05/15 01:16:46;;;;;;;;;7.00;6.00;;;;;20.09;73.59;101371.50;4913264;28;45354;-69
2022/05/15 01:19:11;;;;;;;;;5.67;4.67;;;;;20.05;74.80;101365.31;4931457;28;54006;-71
2022/05/15 01:21:40;;;;;;;;;7.33;7.33;;;;;20.04;73.60;101370.72;4935327;28;64481;-72
2022/05/15 01:24:07;;;;;;;;;4.33;4.33;;;;;20.01;74.71;101366.28;4930313;28;45511;-70
2022/05/15 01:26:34;;;;;;;;;5.33;5.00;;;;;20.00;74.92;101355.59;4938804;28;45518;-71
2022/05/15 01:29:00;;;;;;;;;6.00;4.00;;;;;19.99;74.59;101365.44;4939062;28;45391;-71
2022/05/15 01:31:26;;;;;;;;;5.00;4.00;;;;;20.01;74.20;101370.75;4930329;28;46099;-69
2022/05/15 01:33:52;;;;;;;;;6.33;5.00;;;;;20.00;74.40;101364.53;4918183;28;45398;-70
2022/05/15 01:36:22;;;;;;;;;8.67;5.00;;;;;20.00;74.93;101364.53;4929230;28;45592;-69
2022/05/15 01:38:48;;;;;;;;;6.67;6.67;;;;;19.98;75.27;101357.44;4919660;28;45325;-71
2022/05/15 01:41:13;;;;;;;;;9.00;7.00;;;;;19.98;75.37;101357.44;4922328;28;64996;-69
2022/05/15 01:43:40;;;;;;;;;7.33;5.67;;;;;19.99;75.72;101364.56;4904076;28;45568;-70
2022/05/15 01:46:07;;;;;;;;;6.00;6.00;;;;;19.99;76.16;101359.19;4931806;28;45618;-69
2022/05/15 01:48:32;;;;;;;;;11.33;8.67;;;;;19.96;76.20;101351.19;4938476;28;45443;-70
2022/05/15 01:50:58;;;;;;;;;12.00;8.67;;;;;19.97;75.92;101356.53;4927339;28;46990;-70
2022/05/15 01:53:23;;;;;;;;;9.33;8.67;;;;;19.93;76.75;101349.47;4932057;28;45533;-70
2022/05/15 01:55:50;;;;;;;;;9.67;7.67;;;;;19.94;76.87;101351.25;4928804;28;50582;-69
2022/05/15 01:58:15;;;;;;;;;6.33;6.33;;;;;19.89;76.66;101348.66;4929875;28;45650;-69
2022/05/15 02:00:40;;;;;;;;;7.00;7.00;;;;;19.89;77.82;101345.97;4926528;28;46712;-70
2022/05/15 02:03:06;;;;;;;;;7.67;6.67;;;;;19.84;77.33;101339.81;4925630;28;45964;-69
2022/05/15 02:05:31;;;;;;;;;9.00;4.67;;;;;19.83;78.37;101339.84;4927739;28;46645;-71
2022/05/15 02:07:57;;;;;;;;;5.00;5.00;;;;;19.80;78.33;101334.53;4930539;28;54634;-70
2022/05/15 02:10:22;;;;;;;;;7.33;6.00;;;;;19.78;77.76;101331.88;4938206;28;60400;-70
2022/05/15 02:12:47;;;;;;;;;5.33;5.33;;;;;19.76;79.22;101330.13;4930303;28;45430;-69
2022/05/15 02:15:13;;;;;;;;;9.00;6.33;;;;;19.73;79.68;101322.16;4920133;28;55205;-70
2022/05/15 02:17:38;;;;;;;;;5.67;5.67;;;;;19.70;79.05;101311.50;4934242;28;45373;-69
2022/05/15 02:20:05;;;;;;;;;6.00;5.00;;;;;19.66;79.56;101307.13;4933517;28;46581;-69
2022/05/15 02:22:31;;;;;;;;;5.00;5.00;;;;;19.63;79.98;101308.06;4930781;28;46133;-69
2022/05/15 02:24:56;;;;;;;;;9.00;5.00;;;;;19.62;80.31;101306.31;4929318;28;46207;-69
2022/05/15 02:27:21;;;;;;;;;5.00;4.67;;;;;19.63;80.15;101303.59;4938553;28;45606;-69
2022/05/15 02:29:47;;;;;;;;;5.33;5.00;;;;;19.62;80.59;101314.34;4934408;28;51549;-70
2022/05/15 02:32:12;;;;;;;;;5.33;4.33;;;;;19.58;81.12;101304.53;4936146;28;45512;-69
2022/05/15 02:34:38;;;;;;;;;6.33;5.00;;;;;19.58;80.36;101316.16;4933400;28;45542;-69
2022/05/15 02:37:03;;;;;;;;;5.33;5.33;;;;;19.58;81.58;101310.78;4935917;28;50087;-69
2022/05/15 02:39:29;;;;;;;;;5.33;5.00;;;;;19.57;80.85;101319.75;4936289;28;46353;-70
2022/05/15 02:41:54;;;;;;;;;5.00;5.00;;;;;19.56;83.32;101319.78;4911796;28;53347;-69
2022/05/15 02:44:20;;;;;;;;;7.33;4.67;;;;;19.54;82.64;101324.25;4936004;28;45472;-69
2022/05/15 02:46:45;;;;;;;;;8.00;6.00;;;;;19.49;81.72;101321.66;4932893;28;55395;-68
2022/05/15 02:51:56;;;;;;;;;5.67;5.67;;;;;19.46;82.64;101329.78;4932615;28;45375;-69
2022/05/15 02:54:21;;;;;;;;;4.67;4.67;;;;;19.44;82.99;101336.03;4937701;28;45356;-70
2022/05/15 02:56:47;;;;;;;;;5.67;5.33;;;;;19.42;83.58;101327.16;4931821;28;45336;-70
2022/05/15 02:59:12;;;;;;;;;6.00;5.00;;;;;19.41;83.57;101331.66;4932030;28;45648;-69
2022/05/15 03:01:37;;;;;;;;;7.67;5.67;;;;;19.42;83.56;101337.88;4935230;28;45218;-70
2022/05/15 03:04:04;;;;;;;;;6.00;6.00;;;;;19.35;83.67;101329.06;4930435;28;45521;-69
2022/05/15 03:06:29;;;;;;;;;6.67;5.00;;;;;19.33;84.22;101321.06;4937768;28;45465;-69
2022/05/15 03:08:55;;;;;;;;;6.33;5.00;;;;;19.34;84.33;101316.59;4934312;28;45437;-69
2022/05/15 03:11:20;;;;;;;;;7.67;5.33;;;;;19.29;83.72;101319.34;4927861;28;47028;-69
2022/05/15 03:13:46;;;;;;;;;8.33;5.33;;;;;19.26;84.78;101308.69;4928575;28;45371;-69
2022/05/15 03:16:13;;;;;;;;;5.00;5.00;;;;;19.27;84.23;101313.13;4919947;28;45714;-69
2022/05/15 03:18:44;;;;;;;;;5.67;5.67;;;;;19.25;83.85;101300.69;4911767;28;47469;-69
2022/05/15 03:21:10;;;;;;;;;7.00;6.00;;;;;19.19;84.53;101301.69;4937942;28;45236;-69
2022/05/15 03:23:36;;;;;;;;;10.33;5.33;;;;;19.15;84.79;101297.28;4913823;28;45575;-70
2022/05/15 03:26:02;;;;;;;;;6.33;5.00;;;;;19.19;85.19;101299.00;4921131;28;45653;-70
2022/05/15 03:28:27;;;;;;;;;6.00;6.00;;;;;19.16;85.67;101296.38;4931136;28;46464;-69
2022/05/15 03:30:53;;;;;;;;;6.33;5.00;;;;;19.15;84.62;101294.59;4929260;28;58186;-69
2022/05/15 03:33:18;;;;;;;;;5.00;5.00;;;;;19.09;85.44;101282.22;4938125;28;57462;-71
2022/05/15 03:35:43;;;;;;;;;6.67;4.33;;;;;19.13;85.88;101287.53;4938396;28;45355;-69
2022/05/15 03:38:09;;;;;;;;;5.67;4.33;;;;;19.10;84.92;101281.28;4929452;28;45722;-69
2022/05/15 03:40:35;;;;;;;;;8.33;5.33;;;;;19.08;86.12;101288.47;4937898;28;45343;-70
2022/05/15 03:43:00;;;;;;;;;5.00;5.00;;;;;19.00;85.91;101274.31;4927813;28;45305;-69
2022/05/15 03:45:26;;;;;;;;;5.00;4.00;;;;;19.05;85.51;101290.31;4923302;28;45384;-69
2022/05/15 03:47:54;;;;;;;;;4.33;4.33;;;;;19.02;87.93;101283.22;4936113;28;47961;-70
2022/05/15 03:50:22;;;;;;;;;4.67;4.67;;;;;19.00;87.93;101284.16;4937244;28;45178;-70
2022/05/15 03:52:47;;;;;;;;;3.67;3.33;;;;;18.99;87.42;101277.03;4923525;28;45372;-70
2022/05/15 03:55:13;;;;;;;;;4.33;4.33;;;;;18.97;86.57;101276.19;4920169;28;45614;-69
2022/05/15 03:57:38;;;;;;;;;5.00;4.00;;;;;18.95;86.24;101275.31;4937023;28;45311;-69
2022/05/15 04:00:07;;;;;;;;;7.33;4.33;;;;;18.94;86.92;101270.88;4937640;28;45364;-69
2022/05/15 04:02:33;;;;;;;;;5.67;5.67;;;;;18.92;87.66;101270.91;4937073;28;45377;-69
2022/05/15 04:04:58;;;;;;;;;6.67;4.33;;;;;18.90;86.63;101272.69;4937165;28;54414;-69
2022/05/15 04:07:23;;;;;;;;;4.00;4.00;;;;;18.76;87.37;101247.97;4935602;28;46491;-69
2022/05/15 04:09:49;;;;;;;;;5.00;5.00;;;;;18.83;86.95;101266.56;4922172;28;45851;-68
2022/05/15 04:12:14;;;;;;;;;7.00;5.00;;;;;18.83;87.23;101279.06;4933901;28;45572;-68
2022/05/15 04:14:40;;;;;;;;;6.67;5.33;;;;;18.78;87.55;101268.44;4934366;28;45628;-70
2022/05/15 04:17:06;;;;;;;;;5.67;4.67;;;;;18.76;86.69;101272.94;4926595;28;46604;-69
2022/05/15 04:19:34;;;;;;;;;5.33;5.33;;;;;18.74;86.73;101277.41;4917824;28;45439;-69
2022/05/15 04:22:02;;;;;;;;;8.00;6.00;;;;;18.76;86.45;101280.97;4934410;28;45700;-69
2022/05/15 04:24:28;;;;;;;;;8.33;7.00;;;;;18.74;87.39;101287.22;4933346;28;45413;-69
2022/05/15 04:26:54;;;;;;;;;6.00;6.00;;;;;18.71;87.90;101272.13;4939607;28;46571;-69
2022/05/15 04:29:19;;;;;;;;;8.00;6.00;;;;;18.70;87.90;101269.50;4926865;28;45662;-69
2022/05/15 04:31:45;;;;;;;;;7.00;7.00;;;;;18.72;87.96;101276.56;4931313;28;45419;-70
2022/05/15 04:34:10;;;;;;;;;7.00;7.00;;;;;18.70;86.98;101264.13;4940983;28;45379;-70
2022/05/15 04:36:36;;;;;;;;;6.00;5.00;;;;;18.68;87.52;101258.78;4932959;28;46486;-70
2022/05/15 04:39:03;;;;;;;;;10.00;7.00;;;;;18.68;87.28;101258.78;4936255;28;45487;-70
2022/05/15 04:41:29;;;;;;;;;6.00;6.00;;;;;18.68;88.72;101253.44;4930417;28;45295;-69
2022/05/15 04:43:54;;;;;;;;;7.00;7.00;;;;;18.64;87.78;101254.34;4935693;28;45435;-70
2022/05/15 04:46:21;;;;;;;;;7.00;6.00;;;;;18.66;87.88;101262.38;4938330;28;64603;-70
2022/05/15 04:48:47;;;;;;;;;5.33;5.33;;;;;18.62;88.34;101256.19;4925241;28;45416;-69
2022/05/15 04:51:12;;;;;;;;;8.00;6.33;;;;;18.68;88.42;101269.50;4939060;28;52134;-69
2022/05/15 04:53:37;;;;;;;;;5.00;5.00;;;;;18.67;88.14;101273.03;4937266;28;47996;-70
2022/05/15 04:56:03;;;;;;;;;5.00;5.00;;;;;18.66;88.11;101275.75;4932787;28;46353;-69
2022/05/15 04:58:29;;;;;;;;;4.33;4.00;;;;;18.67;88.93;101280.19;4939750;28;45397;-69
2022/05/15 05:00:54;;;;;;;;;6.33;5.00;;;;;18.64;89.13;101277.53;4937881;28;45173;-69
2022/05/15 05:03:20;;;;;;;;;5.00;5.00;;;;;18.67;88.43;101278.41;4940003;28;45251;-68
2022/05/15 05:05:45;;;;;;;;;9.00;5.00;;;;;18.66;89.53;101279.31;4932077;28;45749;-70
2022/05/15 05:08:12;;;;;;;;;6.33;6.00;;;;;18.63;89.85;101276.66;4931729;28;45829;-70
2022/05/15 05:10:38;;;;;;;;;5.00;5.00;;;;;18.66;89.90;101281.97;4938862;28;45505;-70
2022/05/15 05:13:03;;;;;;;;;6.67;5.00;;;;;18.67;90.54;101277.50;4939804;28;45297;-69
2022/05/15 05:15:29;;;;;;;;;8.67;6.33;;;;;18.66;89.86;101281.97;4937959;28;61754;-69
2022/05/15 05:17:55;;;;;;;;;7.00;6.00;;;;;18.67;89.02;101286.41;4910904;28;45523;-68
2022/05/15 05:20:21;;;;;;;;;8.33;4.67;;;;;18.63;90.20;101287.38;4929635;28;45560;-69
2022/05/15 05:22:46;;;;;;;;;5.67;4.33;;;;;18.62;90.46;101276.69;4939455;28;45515;-70
2022/05/15 05:25:11;;;;;;;;;6.67;5.00;;;;;18.64;92.57;101283.78;4939168;28;53961;-70
2022/05/15 05:30:12;;;;;;;;;7.33;5.00;;;;;18.67;90.12;101291.75;4989922;28;45403;-69
2022/05/15 05:32:37;;;;;;;;;5.00;5.00;;;;;18.66;90.78;101287.34;4983788;28;45235;-71
2022/05/15 05:35:04;;;;;;;;;6.00;4.00;;;;;18.69;89.84;101286.41;4985340;28;58794;-70
2022/05/15 05:37:30;;;;;;;;;8.00;6.00;;;;;18.66;92.06;101287.34;4983432;28;45364;-69
2022/05/15 05:39:56;;;;;;;;;5.00;4.33;;;;;18.69;90.15;101291.78;4983016;28;45299;-70
2022/05/15 05:42:21;;;;;;;;;5.33;4.00;;;;;18.67;91.17;101286.41;4998506;28;45476;-68
2022/05/15 05:44:46;;;;;;;;;8.67;6.00;;;;;18.69;90.79;101287.31;4982134;28;46448;-69
2022/05/15 05:47:12;;;;;;;;;4.67;4.67;;;;;18.67;92.95;101283.75;4992085;28;45456;-69
2022/05/15 05:49:37;;;;;;;;;4.00;4.00;;;;;18.70;91.37;101288.22;4984993;28;56174;-69
2022/05/15 05:52:03;;;;;;;;;7.00;4.67;;;;;18.71;91.70;101280.16;4990646;28;45598;-68
2022/05/15 05:54:29;;;;;;;;;5.00;5.00;;;;;18.71;91.43;101260.56;4996763;28;45488;-69
2022/05/15 05:56:54;;;;;;;;;7.00;6.00;;;;;18.79;91.45;101272.00;4996410;28;45773;-69
2022/05/15 05:59:20;;;;;;;;;7.00;6.00;;;;;18.84;91.27;101280.84;4985628;28;45520;-69
2022/05/15 06:01:45;;;;;;;;;7.00;6.00;;;;;18.89;92.31;101275.41;4989614;28;45405;-68
2022/05/15 06:06:54;;;;;;;;;6.00;6.00;;;;;19.00;91.76;101285.03;4978815;28;45465;-68
2022/05/15 06:09:20;;;;;;;;;5.67;5.33;;;;;19.04;92.30;101284.06;4981402;28;48906;-69
2022/05/15 06:11:45;;;;;;;;;6.00;6.00;;;;;18.99;93.15;101266.31;4996491;28;47023;-69
2022/05/15 06:14:10;;;;;;;;;7.00;7.00;;;;;19.04;91.89;101268.00;4996813;28;62922;-69
2022/05/15 06:16:36;;;;;;;;;7.00;6.00;;;;;19.18;90.96;101280.28;4989581;28;50669;-70
2022/05/15 06:19:02;;;;;;;;;6.00;4.00;;;;;19.25;91.08;101285.50;4992545;28;59968;-69
2022/05/15 06:21:27;;;;;;;;;7.67;4.33;;;;;19.29;92.47;101281.00;4997283;28;45352;-68
2022/05/15 06:23:53;;;;;;;;;8.33;8.33;;;;;19.35;92.07;101280.88;4996148;28;45325;-70
2022/05/15 06:26:18;;;;;;;;;4.67;4.33;;;;;19.36;91.34;101269.25;4985024;28;46189;-69
2022/05/15 06:28:43;;;;;;;;;4.67;4.67;;;;;19.41;91.96;101272.72;4995989;28;53211;-70
2022/05/15 06:31:09;;;;;;;;;5.00;5.00;;;;;19.45;90.81;101270.88;4993207;28;55608;-68
2022/05/15 06:33:34;;;;;;;;;6.00;5.00;;;;;19.44;91.01;101272.69;4986955;28;47290;-70
2022/05/15 06:35:59;;;;;;;;;6.33;5.00;;;;;19.48;91.19;101273.47;4988511;28;45406;-69
2022/05/15 06:38:26;;;;;;;;;8.67;6.00;;;;;19.55;91.25;101280.50;4993712;28;45673;-70
2022/05/15 06:40:51;;;;;;;;;9.00;5.33;;;;;19.57;90.40;101273.31;4985346;28;45616;-69
2022/05/15 06:43:17;;;;;;;;;7.00;7.00;;;;;19.61;91.34;101272.38;4997441;28;50225;-69
2022/05/15 06:45:42;;;;;;;;;5.00;5.00;;;;;19.67;91.01;101272.25;4997323;28;45470;-69
2022/05/15 06:48:08;;;;;;;;;8.00;7.00;;;;;19.72;91.39;101282.91;4980556;28;45612;-69
2022/05/15 06:50:34;;;;;;;;;6.67;5.00;;;;;19.78;90.55;101286.34;4977421;28;45326;-69
2022/05/15 06:52:59;;;;;;;;;6.67;6.67;;;;;19.85;90.37;101293.31;4985991;28;48027;-70
2022/05/15 06:55:25;;;;;;;;;8.00;7.00;;;;;19.89;90.52;101278.97;4992335;28;45346;-69
2022/05/15 06:57:50;;;;;;;;;7.67;6.00;;;;;19.95;89.09;101277.94;4996759;28;45245;-70
2022/05/15 07:00:19;;;;;;;;;7.33;7.33;;;;;19.93;88.76;101263.72;4987382;28;45286;-69
2022/05/15 07:02:46;;;;;;;;;6.00;6.00;;;;;20.03;89.90;101259.91;4996236;28;47346;-69
2022/05/15 07:05:13;;;;;;;;;8.67;6.33;;;;;20.14;89.34;101262.38;4976530;28;45343;-69
2022/05/15 07:07:38;;;;;;;;;9.33;6.00;;;;;20.17;91.03;101256.03;4988833;28;45481;-69
2022/05/15 07:10:07;;;;;;;;;6.00;6.00;;;;;20.24;89.98;101247.84;4986663;28;45281;-69
2022/05/15 07:12:33;;;;;;;;;5.67;5.00;;;;;20.31;90.16;101241.41;4993379;28;47586;-70
2022/05/15 07:14:58;;;;;;;;;7.00;7.00;;;;;20.40;89.73;101243.03;4991418;28;53034;-69
2022/05/15 07:17:24;;;;;;;;;5.00;5.00;;;;;20.47;89.61;101239.31;4996575;28;45349;-70
2022/05/15 07:19:49;;;;;;;;;7.33;6.00;;;;;20.54;89.48;101230.19;4992675;28;56655;-71
2022/05/15 07:22:14;;;;;;;;;8.33;6.67;;;;;20.61;88.80;101237.19;4995349;28;56995;-69
2022/05/15 07:24:40;;;;;;;;;7.00;5.00;;;;;20.72;88.97;101236.94;4980568;28;51895;-69
2022/05/15 07:27:07;;;;;;;;;5.00;5.00;;;;;20.79;88.76;101232.28;4991762;28;45284;-70
2022/05/15 07:29:36;;;;;;;;;9.33;7.00;;;;;20.83;88.08;101223.25;4992463;28;45480;-70
2022/05/15 07:32:03;;;;;;;;;5.00;5.00;;;;;20.88;89.39;101221.31;4979186;28;46913;-70
2022/05/15 07:34:28;;;;;;;;;6.33;6.00;;;;;20.88;88.14;101224.88;4981891;28;45841;-69
2022/05/15 07:36:53;;;;;;;;;6.00;6.00;;;;;20.92;87.43;101228.34;4987270;28;57328;-70
2022/05/15 07:39:20;;;;;;;;;7.00;6.00;;;;;20.94;88.33;101231.91;4993982;28;47478;-70
2022/05/15 07:41:45;;;;;;;;;6.33;5.00;;;;;20.86;87.67;101215.09;4995548;28;47514;-70
2022/05/15 07:44:11;;;;;;;;;6.00;5.33;;;;;20.95;87.36;101222.03;4988379;28;45364;-69
2022/05/15 07:46:36;;;;;;;;;6.33;4.67;;;;;21.01;87.31;101224.56;4992238;28;52825;-69
2022/05/15 07:49:02;;;;;;;;;5.67;5.67;;;;;21.05;86.57;101228.94;4988454;28;53971;-69
2022/05/15 07:51:29;;;;;;;;;5.33;4.00;;;;;21.02;86.84;101216.47;4988976;28;59702;-69
2022/05/15 07:53:54;;;;;;;;;6.67;4.67;;;;;21.12;85.94;101212.63;4977486;28;45850;-70
2022/05/15 07:56:19;;;;;;;;;9.00;6.00;;;;;21.18;85.43;101200.81;4982046;28;53359;-69
2022/05/15 07:58:45;;;;;;;;;6.67;4.33;;;;;21.22;85.11;101207.88;4986665;28;45602;-70
2022/05/15 08:01:10;;;;;;;;;6.00;4.33;;;;;21.30;86.06;101202.31;4995639;28;45481;-69
2022/05/15 08:03:39;;;;;;;;;5.00;5.00;;;;;21.33;85.05;101199.56;4990585;28;56783;-70
2022/05/15 08:08:49;;;;;;;;;4.00;4.00;;;;;21.59;83.38;101198.84;4995715;28;45459;-69
2022/05/15 08:11:15;;;;;;;;;4.33;4.00;;;;;21.70;83.18;101189.53;4983763;28;52957;-70
2022/05/15 08:13:41;;;;;;;;;5.00;5.00;;;;;21.79;83.88;101182.13;4984585;28;52274;-70
2022/05/15 08:16:06;;;;;;;;;7.00;6.00;;;;;21.82;82.97;101164.09;4984828;28;45364;-70
2022/05/15 08:24:01;;;;;;;;;5.00;4.00;;;;;21.93;83.12;101145.81;4995543;28;45547;-69
2022/05/15 08:26:27;;;;;;;;;3.00;3.00;;;;;21.98;82.52;101151.94;4984940;28;45543;-69
2022/05/15 08:28:53;;;;;;;;;6.00;3.67;;;;;22.05;82.66;101144.56;4988839;28;45573;-69
2022/05/15 08:31:19;;;;;;;;;5.33;4.00;;;;;22.07;80.80;101141.81;4988011;28;45519;-69
2022/05/15 08:33:45;;;;;;;;;3.00;3.00;;;;;22.13;82.10;101139.84;4980083;28;45575;-69
2022/05/15 08:36:11;;;;;;;;;5.00;4.00;;;;;22.19;81.55;101144.16;4993469;28;45535;-69
2022/05/15 08:38:37;;;;;;;;;3.33;3.00;;;;;22.24;81.11;101150.25;4985823;28;45166;-71
2022/05/15 08:41:11;;;;;;;;;3.00;3.00;;;;;22.27;80.43;101143.91;4990241;28;45523;-69
2022/05/15 08:43:41;;;;;;;;;3.00;3.00;;;;;22.32;81.60;101139.25;4976204;28;45347;-70
2022/05/15 08:46:20;;;;;;;;;3.33;3.33;;;;;22.34;80.09;101140.97;4987928;28;45482;-69
2022/05/15 08:48:46;;;;;;;;;3.67;2.00;;;;;22.39;78.73;101133.63;4989674;28;45308;-71
2022/05/15 08:51:13;;;;;;;;;3.33;3.00;;;;;22.49;78.57;101137.78;4994721;28;61267;-71
2022/05/15 08:53:40;;;;;;;;;3.00;3.00;;;;;22.57;78.05;101134.81;4985509;28;45529;-69
2022/05/15 08:56:07;;;;;;;;;5.00;2.00;;;;;;;;4984216;28;45588;-69
2022/05/15 08:58:49;;;;;;;;;4.00;3.00;;;;;22.82;76.33;101124.09;4995438;28;45620;-70
2022/05/15 09:01:18;;;;;;;;;2.00;2.00;;;;;22.93;77.79;101126.44;4987584;28;45707;-69
2022/05/15 09:03:43;;;;;;;;;6.00;3.67;;;;;23.05;75.30;101127.81;4989883;28;45423;-69
2022/05/15 09:06:43;;;;;;;;;2.33;2.33;;;;;23.16;74.88;101129.16;4995108;28;53265;-69
2022/05/15 09:09:17;;;;;;;;;2.33;2.33;;;;;23.26;74.90;101118.94;4987048;28;45627;-69
2022/05/15 09:11:45;;;;;;;;;4.00;2.67;;;;;23.34;73.76;101121.38;4985619;28;45865;-70
2022/05/15 09:14:47;;;;;;;;;2.00;2.00;;;;;23.37;70.07;101121.22;4995035;28;45331;-69
2022/05/15 09:17:15;;;;;;;;;3.67;3.00;;;;;23.38;74.09;101118.47;4989472;28;45508;-68
2022/05/15 09:19:41;;;;;;;;;2.67;2.67;;;;;23.36;74.56;101112.28;4998731;28;45505;-71
2022/05/15 09:22:07;;;;;;;;;3.33;3.00;;;;;23.38;73.09;101105.00;4987588;28;62122;-69
2022/05/15 09:24:42;;;;;;;;;3.00;2.00;;;;;23.41;73.07;101104.00;4990275;28;54523;-69
2022/05/15 09:27:13;;;;;;;;;2.00;2.00;;;;;23.40;71.32;101100.44;4995477;28;45502;-70
2022/05/15 09:29:39;;;;;;;;;2.67;2.00;;;;;23.42;70.47;101098.56;4985047;28;45530;-70
2022/05/15 09:32:06;;;;;;;;;2.00;2.00;;;;;23.43;71.71;101105.69;4995230;28;45964;-69
2022/05/15 09:34:35;;;;;;;;;2.67;2.67;;;;;23.47;72.47;101106.47;4984531;28;45573;-69
2022/05/15 09:39:51;;;;;;;;;3.00;2.33;;;;;23.46;69.80;101099.34;4984991;28;45535;-69
2022/05/15 09:45:20;;;;;;;;;2.00;2.00;;;;;23.55;71.13;101087.31;4997943;28;45431;-70
2022/05/15 09:48:06;;;;;;;;;2.33;2.00;;;;;23.61;71.68;101095.19;4985106;28;45646;-69
2022/05/15 09:50:43;;;;;;;;;2.00;2.00;;;;;23.66;72.01;101090.50;5009215;28;49523;-69
2022/05/15 09:53:18;;;;;;;;;2.00;2.00;;;;;23.68;72.21;101091.31;4994147;28;45755;-70
2022/05/15 09:55:56;;;;;;;;;3.67;3.00;;;;;23.69;69.80;101084.97;4993295;28;45574;-70
2022/05/15 09:58:21;;;;;;;;;2.33;2.00;;;;;23.73;70.71;101078.53;4997188;28;45437;-69
2022/05/15 10:00:47;;;;;;;;;3.00;3.00;;;;;23.79;70.91;101076.47;4989934;28;53718;-69
2022/05/15 10:03:20;;;;;;;;;2.33;2.33;;;;;23.83;69.70;101077.22;4988494;28;46602;-70
2022/05/15 10:05:56;;;;;;;;;2.33;2.33;;;;;23.87;70.83;101076.19;4997290;28;45482;-69
2022/05/15 10:08:24;;;;;;;;;2.00;2.00;;;;;23.88;70.27;101071.66;4997931;28;45313;-69
2022/05/15 10:10:54;;;;;;;;;2.67;2.67;;;;;23.87;67.61;101065.38;4984429;28;45637;-71
2022/05/15 10:13:35;;;;;;;;;3.00;3.00;;;;;23.89;67.56;101052.72;4997363;28;46912;-69
2022/05/15 10:16:20;;;;;;;;;2.00;2.00;;;;;23.91;66.25;101049.94;4997295;28;45668;-69
2022/05/15 10:19:06;;;;;;;;;2.33;2.00;;;;;24.07;65.99;101067.25;4994496;28;45362;-69
2022/05/15 10:21:42;;;;;;;;;3.00;3.00;;;;;24.13;66.40;101060.72;4982800;28;45578;-70
2022/05/15 10:24:15;;;;;;;;;2.33;2.33;;;;;24.17;66.11;101055.13;4993037;28;46592;-68
2022/05/15 10:26:59;;;;;;;;;4.67;2.00;;;;;24.21;63.73;101045.97;4989827;28;45465;-69
2022/05/15 10:29:36;;;;;;;;;3.00;3.00;;;;;24.27;65.98;101039.44;4997505;28;45522;-70
2022/05/15 10:32:29;;;;;;;;;5.00;5.00;;;;;24.28;67.39;101039.38;4997059;28;45293;-71
2022/05/15 10:34:55;;;;;;;;;6.00;4.67;;;;;24.27;64.31;101029.53;4983465;28;46217;-70
2022/05/15 10:37:30;;;;;;;;;3.00;3.00;;;;;24.30;66.17;101036.63;4991662;28;45417;-70
2022/05/15 10:40:04;;;;;;;;;2.67;2.67;;;;;24.31;64.57;101032.97;4996671;28;45513;-71
2022/05/15 10:42:48;;;;;;;;;3.67;3.67;;;;;24.38;61.13;101034.50;4997430;28;45382;-70
2022/05/15 10:45:35;;;;;;;;;6.00;5.00;;;;;24.45;65.40;101032.41;4989277;28;45663;-70
2022/05/15 10:48:21;;;;;;;;;5.00;4.67;;;;;24.48;64.44;101032.28;4993513;28;45367;-69
2022/05/15 10:51:04;;;;;;;;;5.00;4.00;;;;;24.53;65.00;101023.03;4996266;28;45416;-69
2022/05/15 10:59:42;;;;;;;;;5.67;4.33;;;;;24.74;61.69;101017.63;4996419;28;45450;-70
2022/05/15 11:02:11;;;;;;;;;6.00;5.00;;;;;24.83;64.51;101015.41;5011819;28;45538;-69
2022/05/15 11:04:49;;;;;;;;;3.67;2.67;;;;;24.88;64.39;101014.31;4997043;28;45494;-69
2022/05/15 11:07:25;;;;;;;;;5.00;3.67;;;;;24.90;64.47;101012.41;4976440;28;45704;-70
2022/05/15 11:10:06;;;;;;;;;4.00;4.00;;;;;24.91;66.28;101006.94;4982874;28;45617;-71
2022/05/15 11:12:58;;;;;;;;;3.00;1.67;;;;;24.85;64.99;101009.03;4987684;28;46118;-69
2022/05/15 11:15:23;;;;;;;;;3.00;3.00;;;;;24.88;65.82;100995.41;4978528;28;45496;-70
2022/05/15 11:18:33;;;;;;;;;6.00;4.00;;;;;24.92;66.73;100994.28;4993919;28;46388;-72
2022/05/15 11:21:02;;;;;;;;;8.00;6.33;;;;;25.02;62.00;100996.50;4994487;28;45445;-73
2022/05/15 11:23:37;;;;;;;;;9.67;7.00;;;;;25.24;61.40;100987.41;4988824;28;45480;-73
2022/05/15 11:26:31;;;;;;;;;8.00;5.33;;;;;25.48;57.83;100988.97;4981772;28;45480;-71
2022/05/15 11:29:00;;;;;;;;;7.33;7.33;;;;;25.68;59.78;100979.88;4991258;28;45637;-71
2022/05/15 11:31:38;;;;;;;;;9.00;6.00;;;;;25.86;56.01;100980.81;4986490;28;45475;-72
2022/05/15 11:34:06;;;;;;;;;11.67;9.00;;;;;26.03;57.62;100979.94;4979433;28;45223;-73
2022/05/15 11:36:43;;;;;;;;;8.33;4.33;;;;;26.21;55.42;100979.03;4992335;28;45504;-74
2022/05/15 11:39:14;;;;;;;;;6.67;5.00;;;;;26.34;54.70;100974.72;4987210;28;46615;-72
2022/05/15 11:41:42;;;;;;;;;5.00;5.00;;;;;26.56;54.92;100966.34;4991315;28;45386;-72
2022/05/15 11:44:21;;;;;;;;;7.00;5.00;;;;;26.73;51.34;100970.88;4982184;28;45648;-74
2022/05/15 11:46:46;;;;;;;;;2.00;2.00;;;;;26.93;51.98;100963.50;4992096;28;45225;-72
2022/05/15 11:49:34;;;;;;;;;4.00;4.00;;;;;27.09;51.52;100959.00;4990055;28;46339;-72
2022/05/15 11:52:12;;;;;;;;;3.00;3.00;;;;;27.24;50.76;100966.28;4984694;28;45470;-74
2022/05/15 11:54:40;;;;;;;;;2.67;2.00;;;;;27.39;49.04;100964.53;4981941;28;45562;-74
2022/05/15 11:57:08;;;;;;;;;3.00;3.00;;;;;27.56;48.92;100967.16;4977465;28;45469;-74